Kezdőlap
METAR-TAF:

METAR-TAF

Repülőterek :

Antananarivo, Madagaszkár

földrajzi szélesség: 18-48S, földrajzi hosszúság: 047-29E, magasság: 1279 m

Jelenlegi meteorológiai megfigyelések

A jelentés 6 perccel ezelõtt készült, 16:30 UTC
Dél-délkeleti szél 7 kt
Hőmérséklet 11°C
Páratartalom 71%
Légköri nyomás 1026 hPa
Látótávolság 10 km, vagy több
Kevés felhő 2000 lábon

METAR: FMMI 181630Z 15007KT 9999 FEW020 11/06 Q1026 NOSIG

Idő: 19:36 (16:36 UTC)

Előrejelzés

A jelentés 5 órával és 36 perccel ezelõtt készült, 11:00 UTC
Az előrejelzés 18-én 12 óra UTC és 19-én 18 óra UTC között érvényes
Dél-délkeleti szél 10 kt
Látótávolság 10 km, vagy több
Kevés felhő 1700 lábon
Szakadozott felhőzet 2000 lábon
Valószínűség 30% :
19-én 01 óra UTC és 19-én 06 óra UTC között ideiglenes
Látótávolság: 4500 m
Szakadozott felhőzet 700 lábon
szitálás, esõ

TAF: FMMI 181100Z 1812/1918 16010KT 9999 FEW017 BKN020 PROB30 TEMPO 1901/1906 4500 DZRA BKN007

Meteorológiai megfigyelések és előrejelzések több, mint 4000 repülőtéren (METAR és TAF jelentéseket).

A térképen piros és sárga pontok jelzik az elérhető meteorológiai állomásokat.

Mozgassa az egeret a pont fölött, hogy megjelenjen az állomás neve.

Azután kattintson az időjárási megfigyelések és előrejelzések megtekintéséhez.

A térkép megváltoztatása: kattintson a fekete keresztel jelölt zöld gombra ráközelítéshez, a vonallal jelölt zöld gombra távolításhoz, vagy a zöld nyilakra a szomszédos térképek eléréséhez.


METAR-TAF: